createdAt,value
2022-08-05T00:00:16.702Z,51.88
2022-08-05T00:02:50.882Z,52.72
2022-08-05T00:06:03.178Z,52.16
2022-08-05T00:08:32.740Z,51.36
2022-08-05T00:11:00.686Z,52.66
2022-08-05T00:13:38.906Z,52.06
2022-08-05T00:16:08.757Z,51.98
2022-08-05T00:18:38.002Z,50.64
2022-08-05T00:21:06.467Z,52.22
2022-08-05T00:23:45.850Z,51.79
2022-08-05T00:26:20.938Z,53.43
2022-08-05T00:28:50.536Z,53.33
2022-08-05T00:31:54.184Z,53.32
2022-08-05T00:34:53.196Z,53.17
2022-08-05T00:37:13.232Z,52.84
2022-08-05T00:39:44.263Z,52.60
2022-08-05T00:42:36.646Z,53.78
2022-08-05T00:45:05.467Z,53.15
2022-08-05T00:47:56.322Z,53.57
2022-08-05T00:50:25.309Z,53.48
2022-08-05T00:52:55.169Z,53.14
2022-08-05T00:55:23.297Z,54.12
2022-08-05T00:58:11.108Z,53.26
2022-08-05T01:00:39.654Z,53.57
2022-08-05T01:03:07.992Z,54.32
2022-08-05T01:05:35.430Z,53.88
2022-08-05T01:08:42.156Z,54.23
2022-08-05T01:10:58.095Z,54.82
2022-08-05T01:14:04.227Z,54.21
2022-08-05T01:16:48.729Z,54.48
2022-08-05T01:19:46.215Z,54.67
2022-08-05T01:22:31.811Z,54.85
2022-08-05T01:25:19.893Z,55.16
2022-08-05T01:27:55.539Z,55.26
2022-08-05T01:30:34.121Z,55.37
2022-08-05T01:33:08.056Z,55.03
2022-08-05T01:35:50.989Z,53.71
2022-08-05T01:38:27.467Z,53.69
2022-08-05T01:40:59.686Z,54.76
2022-08-05T01:43:28.081Z,56.07
2022-08-05T01:45:57.043Z,56.09
2022-08-05T01:48:29.851Z,55.45
2022-08-05T01:51:00.117Z,55.05
2022-08-05T01:53:57.246Z,56.14
2022-08-05T01:58:11.651Z,56.87
2022-08-05T01:59:20.118Z,56.99
2022-08-05T02:01:48.680Z,57.50
2022-08-05T02:04:18.396Z,56.43
2022-08-05T02:06:45.729Z,56.67
2022-08-05T02:09:16.470Z,56.51
2022-08-05T02:11:52.680Z,56.69
2022-08-05T02:14:32.402Z,57.13
2022-08-05T02:17:04.059Z,58.56
2022-08-05T02:19:36.371Z,56.81
2022-08-05T02:22:25.339Z,56.19
2022-08-05T02:24:55.865Z,56.77
2022-08-05T02:27:30.151Z,56.45
2022-08-05T02:30:12.376Z,57.56
2022-08-05T02:32:41.635Z,57.61
2022-08-05T02:35:13.563Z,57.44
2022-08-05T02:37:42.770Z,56.25
2022-08-05T02:40:16.556Z,57.00
2022-08-05T02:42:44.788Z,56.60
2022-08-05T02:45:21.311Z,56.61
2022-08-05T02:48:07.091Z,57.81
2022-08-05T02:50:43.824Z,57.55
2022-08-05T02:53:18.675Z,57.19
2022-08-05T02:55:52.102Z,57.60
2022-08-05T02:58:23.277Z,56.13
2022-08-05T03:00:58.984Z,58.06
2022-08-05T03:03:27.893Z,58.00
2022-08-05T03:06:54.728Z,57.50
2022-08-05T03:08:52.174Z,58.46
2022-08-05T03:11:55.561Z,57.99
2022-08-05T03:14:08.517Z,57.03
2022-08-05T03:16:40.675Z,57.82
2022-08-05T03:19:17.441Z,58.25
2022-08-05T03:21:55.374Z,58.12
2022-08-05T03:24:29.511Z,58.58
2022-08-05T03:27:00.867Z,58.17
2022-08-05T03:29:44.613Z,59.06
2022-08-05T03:32:15.384Z,59.61
2022-08-05T03:34:50.553Z,58.56
2022-08-05T03:37:19.689Z,59.15
2022-08-05T03:40:01.124Z,59.89
2022-08-05T03:42:32.276Z,58.88
2022-08-05T03:45:01.893Z,58.93
2022-08-05T03:47:49.363Z,59.94
2022-08-05T03:50:16.775Z,59.46
2022-08-05T03:55:49.952Z,59.06
2022-08-05T03:56:11.897Z,58.75
2022-08-05T03:58:44.869Z,59.41
2022-08-05T04:01:13.270Z,59.40
2022-08-05T04:04:05.402Z,58.17
2022-08-05T04:06:30.607Z,59.75
2022-08-05T04:08:58.765Z,59.79
2022-08-05T04:11:47.075Z,59.22
2022-08-05T04:14:17.870Z,58.99
2022-08-05T04:16:45.603Z,59.98
2022-08-05T04:19:13.366Z,60.31
2022-08-05T04:22:08.824Z,59.83
2022-08-05T04:24:28.415Z,58.80
2022-08-05T04:26:58.229Z,58.71
2022-08-05T04:29:27.252Z,60.86
2022-08-05T04:31:56.881Z,59.37
2022-08-05T04:34:32.968Z,58.97
2022-08-05T04:37:02.985Z,59.55
2022-08-05T04:39:31.367Z,59.32
2022-08-05T04:41:59.509Z,58.81
2022-08-05T04:44:30.298Z,59.24
2022-08-05T04:47:09.726Z,59.23
2022-08-05T04:50:01.331Z,58.66
2022-08-05T04:52:28.273Z,57.77
2022-08-05T04:54:57.294Z,59.50
2022-08-05T04:57:28.531Z,58.82
2022-08-05T04:59:58.497Z,57.64
2022-08-05T05:02:36.795Z,59.62
2022-08-05T05:05:16.533Z,58.50
2022-08-05T05:07:56.632Z,58.53
2022-08-05T05:10:29.627Z,57.98
2022-08-05T05:12:57.791Z,57.75
2022-08-05T05:15:57.396Z,57.50
2022-08-05T05:18:15.280Z,57.54
2022-08-05T05:20:56.090Z,57.42
2022-08-05T05:23:25.879Z,57.42
2022-08-05T05:25:53.149Z,57.59
2022-08-05T05:28:20.874Z,57.91
2022-08-05T05:30:49.563Z,56.31
2022-08-05T05:33:17.711Z,56.02
2022-08-05T05:35:50.817Z,56.42
2022-08-05T05:38:22.200Z,56.08
2022-08-05T05:40:54.379Z,56.04
2022-08-05T05:43:56.430Z,55.25
2022-08-05T05:46:17.306Z,55.12
2022-08-05T05:48:48.323Z,55.30
2022-08-05T05:51:22.989Z,56.44
2022-08-05T05:53:57.392Z,55.36
2022-08-05T05:56:31.507Z,54.50
2022-08-05T05:59:03.452Z,54.82
2022-08-05T06:01:38.026Z,55.12
2022-08-05T06:04:07.557Z,55.15
2022-08-05T06:06:35.503Z,55.07
2022-08-05T06:09:04.220Z,54.52
2022-08-05T06:11:32.025Z,55.32
2022-08-05T06:14:00.375Z,54.45
2022-08-05T06:16:36.932Z,54.42
2022-08-05T06:19:07.321Z,55.67
2022-08-05T06:24:12.050Z,53.33
2022-08-05T06:26:51.241Z,53.82
2022-08-05T06:29:23.604Z,53.30
2022-08-05T06:32:24.836Z,53.56
2022-08-05T06:34:56.815Z,52.67
2022-08-05T06:37:56.355Z,52.75
2022-08-05T06:40:13.978Z,52.69
2022-08-05T06:42:45.852Z,52.30
2022-08-05T06:45:20.679Z,52.36
2022-08-05T06:48:36.593Z,51.85
2022-08-05T06:50:36.003Z,51.12
2022-08-05T06:53:11.244Z,51.06
2022-08-05T06:55:42.007Z,50.66
2022-08-05T06:58:29.928Z,50.49
2022-08-05T07:01:01.172Z,49.77
2022-08-05T07:03:32.722Z,47.84
2022-08-05T07:06:05.818Z,48.62
2022-08-05T07:08:47.793Z,48.70
2022-08-05T07:11:22.183Z,48.83
2022-08-05T07:14:20.630Z,48.08
2022-08-05T07:18:00.693Z,47.50
2022-08-05T07:22:35.921Z,47.48
2022-08-05T07:25:23.090Z,47.42
2022-08-05T07:27:57.228Z,46.54
2022-08-05T07:30:34.724Z,45.60
2022-08-05T07:33:16.587Z,46.20
2022-08-05T07:36:05.387Z,45.46
2022-08-05T07:38:43.694Z,45.53
2022-08-05T07:42:13.475Z,45.13
2022-08-05T07:44:18.653Z,45.01
2022-08-05T07:46:49.259Z,44.45
2022-08-05T07:49:18.133Z,44.71
2022-08-05T07:51:54.038Z,44.82
2022-08-05T07:54:30.690Z,44.07
2022-08-05T07:57:14.675Z,44.51
2022-08-05T07:59:46.899Z,43.41
2022-08-05T08:02:17.558Z,43.34
2022-08-05T08:04:46.361Z,43.68
2022-08-05T08:07:14.092Z,41.57
2022-08-05T08:09:43.016Z,42.04
2022-08-05T08:12:29.671Z,41.56
2022-08-05T08:15:02.202Z,41.89
2022-08-05T08:17:31.160Z,41.60
2022-08-05T08:20:43.428Z,39.89
2022-08-05T08:22:50.970Z,41.01
2022-08-05T08:25:26.378Z,39.08
2022-08-05T08:28:03.223Z,39.51
2022-08-05T08:30:40.783Z,40.44
2022-08-05T08:33:15.344Z,39.76
2022-08-05T08:35:52.957Z,39.65
2022-08-05T08:38:35.653Z,38.87
2022-08-05T08:41:07.349Z,37.84
2022-08-05T08:45:19.418Z,35.79
2022-08-05T08:46:24.029Z,36.27
2022-08-05T08:49:06.077Z,37.06
2022-08-05T08:52:02.929Z,36.97
2022-08-05T08:54:30.614Z,36.57
2022-08-05T08:56:59.597Z,36.09
2022-08-05T08:59:27.632Z,36.15
2022-08-05T09:02:02.180Z,35.96
2022-08-05T09:04:30.464Z,34.10
2022-08-05T09:06:58.428Z,34.77
2022-08-05T09:09:32.459Z,35.91
2022-08-05T09:12:19.802Z,35.16
2022-08-05T09:14:57.231Z,35.17
2022-08-05T09:17:40.639Z,33.06
2022-08-05T09:20:09.528Z,34.96
2022-08-05T09:22:55.520Z,33.01
2022-08-05T09:26:03.111Z,33.71
2022-08-05T09:28:32.524Z,31.25
2022-08-05T09:32:38.742Z,32.08
2022-08-05T09:34:10.733Z,32.29
2022-08-05T09:36:56.369Z,32.56
2022-08-05T09:39:27.805Z,31.51
2022-08-05T09:42:23.090Z,31.96
2022-08-05T09:44:57.153Z,30.18
2022-08-05T09:47:36.559Z,29.73
2022-08-05T09:50:37.684Z,29.11
2022-08-05T09:53:06.272Z,27.46
2022-08-05T09:55:58.062Z,26.45
2022-08-05T09:58:24.622Z,26.59
2022-08-05T10:01:01.001Z,26.46
2022-08-05T10:03:56.533Z,26.17
2022-08-05T10:06:19.417Z,22.64
2022-08-05T10:08:53.791Z,24.76
2022-08-05T10:11:21.446Z,24.47
2022-08-05T10:13:54.511Z,24.10
2022-08-05T10:16:31.093Z,22.56
2022-08-05T10:18:59.934Z,22.42
2022-08-05T10:21:35.269Z,21.89
2022-08-05T10:24:10.727Z,21.16
2022-08-05T10:26:49.115Z,22.21
2022-08-05T10:30:06.065Z,23.14
2022-08-05T10:32:53.603Z,22.90
2022-08-05T10:35:01.098Z,24.51
2022-08-05T10:37:40.012Z,22.93
2022-08-05T10:40:18.962Z,23.91
2022-08-05T10:42:50.226Z,23.40
2022-08-05T10:45:41.834Z,22.42
2022-08-05T10:48:29.848Z,22.70
2022-08-05T10:51:21.913Z,23.40
2022-08-05T10:54:23.058Z,22.40
2022-08-05T10:56:52.810Z,23.83
2022-08-05T11:00:02.546Z,23.43
2022-08-05T11:02:37.821Z,23.15
2022-08-05T11:05:07.201Z,22.92
2022-08-05T11:08:02.405Z,23.44
2022-08-05T11:10:33.154Z,23.06
2022-08-05T11:13:01.165Z,24.44
2022-08-05T11:15:59.121Z,23.50
2022-08-05T11:18:24.591Z,23.26
2022-08-05T11:20:52.339Z,23.59
2022-08-05T11:23:33.422Z,23.23
2022-08-05T11:26:05.670Z,23.43
2022-08-05T11:28:36.206Z,23.08
2022-08-05T11:31:06.421Z,22.50
2022-08-05T11:33:46.459Z,23.41
2022-08-05T11:36:14.964Z,23.63
2022-08-05T11:38:46.117Z,23.81
2022-08-05T11:41:58.175Z,23.59
2022-08-05T11:44:21.748Z,23.13
2022-08-05T11:47:14.149Z,22.23
2022-08-05T11:49:49.843Z,22.86
2022-08-05T11:52:29.426Z,23.15
2022-08-05T11:54:58.165Z,23.58
2022-08-05T11:58:08.046Z,22.58
2022-08-05T12:00:29.210Z,23.01
2022-08-05T12:02:57.846Z,22.66
2022-08-05T12:05:32.295Z,22.29
2022-08-05T12:08:10.137Z,22.45
2022-08-05T12:10:45.302Z,22.51
2022-08-05T12:13:16.955Z,22.50
2022-08-05T12:15:49.766Z,21.94
2022-08-05T12:18:18.242Z,22.60
2022-08-05T12:20:47.962Z,22.77
2022-08-05T12:23:16.659Z,22.10
2022-08-05T12:25:53.858Z,22.49
2022-08-05T12:28:31.186Z,22.57
2022-08-05T12:31:02.389Z,21.86
2022-08-05T12:33:36.709Z,21.93
2022-08-05T12:36:07.008Z,21.86
2022-08-05T12:38:36.990Z,21.38
2022-08-05T12:41:12.296Z,21.70
2022-08-05T12:43:50.448Z,21.25
2022-08-05T12:46:26.440Z,21.66
2022-08-05T12:49:00.599Z,21.79
2022-08-05T12:52:13.013Z,21.36
2022-08-05T12:54:29.375Z,21.54
2022-08-05T12:56:57.898Z,22.21
2022-08-05T12:59:46.679Z,23.04
2022-08-05T13:02:16.471Z,21.91
2022-08-05T13:04:52.514Z,21.51
2022-08-05T13:07:56.081Z,22.31
2022-08-05T13:10:11.802Z,22.82
2022-08-05T13:12:42.712Z,21.31
2022-08-05T13:15:42.146Z,23.25
2022-08-05T13:18:19.756Z,23.87
2022-08-05T13:20:49.046Z,21.63
2022-08-05T13:23:22.040Z,23.75
2022-08-05T13:25:59.627Z,22.02
2022-08-05T13:28:28.927Z,21.19
2022-08-05T13:30:57.190Z,20.36
2022-08-05T13:34:22.648Z,20.95
2022-08-05T13:36:14.427Z,20.97
2022-08-05T13:38:42.943Z,21.58
2022-08-05T13:41:11.339Z,21.06
2022-08-05T13:43:44.303Z,21.51
2022-08-05T13:46:13.818Z,21.09
2022-08-05T13:48:58.323Z,21.10
2022-08-05T13:51:28.766Z,20.77
2022-08-05T13:53:56.533Z,21.13
2022-08-05T13:56:26.407Z,21.47
2022-08-05T13:58:53.985Z,21.08
2022-08-05T14:01:27.408Z,20.97
2022-08-05T14:04:22.352Z,20.54
2022-08-05T14:07:11.984Z,21.18
2022-08-05T14:09:46.154Z,21.47
2022-08-05T14:12:17.540Z,21.39
2022-08-05T14:14:59.250Z,21.52
2022-08-05T14:17:26.643Z,21.47
2022-08-05T14:20:00.878Z,22.78
2022-08-05T14:22:30.505Z,22.78
2022-08-05T14:25:02.155Z,22.26
2022-08-05T14:27:33.531Z,21.31
2022-08-05T14:30:01.835Z,21.29
2022-08-05T14:32:31.852Z,21.07
2022-08-05T14:34:59.353Z,21.40
2022-08-05T14:37:45.322Z,21.13
2022-08-05T14:40:17.052Z,21.43
2022-08-05T14:42:44.466Z,21.37
2022-08-05T14:45:11.737Z,21.22
2022-08-05T14:48:02.588Z,21.29
2022-08-05T14:50:26.293Z,21.29
2022-08-05T14:52:58.485Z,21.04
2022-08-05T14:55:28.728Z,21.03
2022-08-05T14:58:12.225Z,21.41
2022-08-05T15:00:59.664Z,21.37
2022-08-05T15:03:32.997Z,21.00
2022-08-05T15:06:08.410Z,21.29
2022-08-05T15:08:59.517Z,21.83
2022-08-05T15:11:51.844Z,21.78
2022-08-05T15:14:33.425Z,21.90
2022-08-05T15:17:04.214Z,21.62
2022-08-05T15:19:32.098Z,21.67
2022-08-05T15:22:01.295Z,21.65
2022-08-05T15:24:29.502Z,21.78
2022-08-05T15:26:57.137Z,21.80
2022-08-05T15:29:30.092Z,21.87
2022-08-05T15:32:03.166Z,21.97
2022-08-05T15:34:32.166Z,21.86
2022-08-05T15:37:06.256Z,21.90
2022-08-05T15:41:02.714Z,21.97
2022-08-05T15:42:53.705Z,21.97
2022-08-05T15:45:16.503Z,22.01
2022-08-05T15:47:46.384Z,21.65
2022-08-05T15:50:16.012Z,22.17
2022-08-05T15:52:52.709Z,21.68
2022-08-05T15:55:24.574Z,22.04
2022-08-05T15:57:52.611Z,21.89
2022-08-05T16:00:32.759Z,22.00
2022-08-05T16:03:08.009Z,21.39
2022-08-05T16:05:35.372Z,21.70
2022-08-05T16:08:06.330Z,21.81
2022-08-05T16:10:33.646Z,21.98
2022-08-05T16:13:00.926Z,21.49
2022-08-05T16:15:32.255Z,21.74
2022-08-05T16:18:00.074Z,20.77
2022-08-05T16:20:27.931Z,21.43
2022-08-05T16:22:55.430Z,21.36
2022-08-05T16:25:34.180Z,20.43
2022-08-05T16:28:06.537Z,20.61
2022-08-05T16:30:37.248Z,20.47
2022-08-05T16:33:04.570Z,20.34
2022-08-05T16:35:33.558Z,19.68
2022-08-05T16:38:18.848Z,19.30
2022-08-05T16:40:55.262Z,19.09
2022-08-05T16:43:24.127Z,19.23
2022-08-05T16:46:04.704Z,19.08
2022-08-05T16:48:36.080Z,19.13
2022-08-05T16:51:03.956Z,18.90
2022-08-05T16:54:06.167Z,18.80
2022-08-05T16:56:24.851Z,18.98
2022-08-05T16:58:52.174Z,19.46
2022-08-05T17:01:19.594Z,19.93
2022-08-05T17:03:47.189Z,20.49
2022-08-05T17:06:16.594Z,21.39
2022-08-05T17:08:53.478Z,22.06
2022-08-05T17:11:23.824Z,22.72
2022-08-05T17:14:00.509Z,23.21
2022-08-05T17:16:35.992Z,23.45
2022-08-05T17:19:09.589Z,23.87
2022-08-05T17:21:39.742Z,23.69
2022-08-05T17:24:18.520Z,24.20
2022-08-05T17:26:57.848Z,24.54
2022-08-05T17:29:33.813Z,24.67
2022-08-05T17:32:11.763Z,25.43
2022-08-05T17:34:48.527Z,25.79
2022-08-05T17:37:40.388Z,25.99
2022-08-05T17:40:10.617Z,25.33
2022-08-05T17:42:41.731Z,25.61
2022-08-05T17:45:20.482Z,25.85
2022-08-05T17:47:53.512Z,25.94
2022-08-05T17:50:28.459Z,26.58
2022-08-05T17:52:58.966Z,26.82
2022-08-05T17:55:27.398Z,26.55
2022-08-05T17:58:02.290Z,26.87
2022-08-05T18:00:29.967Z,26.56
2022-08-05T18:02:57.348Z,27.42
2022-08-05T18:05:28.214Z,27.14
2022-08-05T18:08:02.557Z,28.68
2022-08-05T18:10:32.231Z,27.94
2022-08-05T18:13:01.956Z,29.12
2022-08-05T18:15:35.136Z,29.08
2022-08-05T18:18:11.074Z,28.97
2022-08-05T18:20:38.908Z,29.41
2022-08-05T18:23:11.192Z,30.26
2022-08-05T18:25:45.531Z,30.13
2022-08-05T18:28:16.655Z,30.40
2022-08-05T18:30:45.114Z,30.19
2022-08-05T18:33:13.786Z,30.93
2022-08-05T18:36:01.154Z,30.86
2022-08-05T18:38:30.655Z,31.29
2022-08-05T18:41:55.688Z,31.35
2022-08-05T18:43:48.935Z,31.37
2022-08-05T18:46:20.053Z,31.98
2022-08-05T18:48:51.943Z,32.18
2022-08-05T18:52:05.669Z,31.82
2022-08-05T18:54:26.175Z,32.93
2022-08-05T18:56:57.119Z,32.34
2022-08-05T18:59:43.994Z,33.18
2022-08-05T19:02:38.036Z,33.14
2022-08-05T19:05:02.769Z,33.54
2022-08-05T19:07:50.266Z,33.65
2022-08-05T19:10:26.657Z,33.30
2022-08-05T19:12:58.131Z,33.54
2022-08-05T19:15:57.766Z,33.80
2022-08-05T19:18:20.723Z,33.67
2022-08-05T19:20:52.140Z,33.76
2022-08-05T19:24:03.339Z,34.14
2022-08-05T19:26:08.509Z,34.48
2022-08-05T19:28:43.922Z,34.55
2022-08-05T19:31:13.322Z,34.71
2022-08-05T19:33:55.711Z,34.88
2022-08-05T19:36:27.157Z,35.39
2022-08-05T19:38:58.954Z,35.07
2022-08-05T19:42:06.486Z,35.45
2022-08-05T19:44:17.168Z,36.38
2022-08-05T19:46:46.065Z,35.34
2022-08-05T19:49:17.256Z,35.86
2022-08-05T19:52:09.022Z,36.31
2022-08-05T19:54:34.537Z,36.07
2022-08-05T19:57:06.540Z,35.63
2022-08-05T19:59:54.564Z,36.88
2022-08-05T20:02:26.242Z,36.38
2022-08-05T20:04:59.054Z,36.57
2022-08-05T20:07:46.445Z,36.45
2022-08-05T20:10:15.877Z,36.10
2022-08-05T20:12:47.833Z,37.01
2022-08-05T20:15:23.261Z,37.26
2022-08-05T20:18:10.689Z,36.89
2022-08-05T20:20:52.175Z,36.82
2022-08-05T20:23:23.680Z,37.73
2022-08-05T20:26:16.451Z,37.59
2022-08-05T20:28:45.697Z,37.94
2022-08-05T20:31:12.980Z,37.77
2022-08-05T20:33:42.592Z,38.62
2022-08-05T20:36:11.127Z,38.37
2022-08-05T20:38:40.816Z,38.36
2022-08-05T20:41:24.271Z,38.96
2022-08-05T20:44:00.478Z,39.12
2022-08-05T20:46:30.169Z,39.55
2022-08-05T20:48:57.450Z,39.58
2022-08-05T20:51:24.726Z,39.10
2022-08-05T20:53:56.353Z,39.90
2022-08-05T20:56:28.725Z,38.51
2022-08-05T20:58:59.976Z,39.48
2022-08-05T21:01:39.138Z,39.44
2022-08-05T21:04:12.306Z,39.72
2022-08-05T21:06:45.632Z,39.66
2022-08-05T21:09:14.950Z,39.58
2022-08-05T21:12:09.643Z,39.59
2022-08-05T21:14:34.910Z,40.19
2022-08-05T21:17:05.127Z,40.41
2022-08-05T21:19:46.789Z,40.18
2022-08-05T21:22:21.746Z,40.92
2022-08-05T21:24:52.369Z,42.27
2022-08-05T21:27:24.647Z,42.60
2022-08-05T21:29:54.012Z,41.16
2022-08-05T21:32:23.688Z,41.47
2022-08-05T21:34:55.975Z,42.46
2022-08-05T21:37:41.061Z,42.15
2022-08-05T21:40:13.148Z,41.22
2022-08-05T21:42:44.446Z,42.24
2022-08-05T21:45:24.929Z,42.18
2022-08-05T21:47:56.649Z,42.04
2022-08-05T21:50:25.664Z,42.65
2022-08-05T21:52:53.498Z,42.67
2022-08-05T21:56:00.753Z,43.09
2022-08-05T21:58:10.228Z,42.64
2022-08-05T22:00:39.989Z,43.05
2022-08-05T22:03:10.027Z,43.22
2022-08-05T22:05:48.600Z,43.76
2022-08-05T22:08:22.239Z,43.57
2022-08-05T22:10:51.594Z,43.95
2022-08-05T22:14:19.511Z,43.88
2022-08-05T22:16:32.242Z,43.87
2022-08-05T22:18:58.792Z,44.19
2022-08-05T22:21:26.322Z,44.85
2022-08-05T22:24:13.224Z,43.40
2022-08-05T22:27:17.678Z,44.92
2022-08-05T22:29:45.931Z,44.39
2022-08-05T22:32:17.478Z,43.75
2022-08-05T22:34:45.817Z,44.89
2022-08-05T22:37:13.140Z,44.73
2022-08-05T22:39:40.572Z,44.19
2022-08-05T22:42:12.653Z,44.91
2022-08-05T22:44:47.093Z,45.38
2022-08-05T22:47:29.635Z,45.84
2022-08-05T22:50:20.045Z,45.15
2022-08-05T22:52:46.269Z,45.87
2022-08-05T22:57:55.092Z,45.72
2022-08-05T23:00:23.541Z,45.92
2022-08-05T23:02:53.243Z,45.99
2022-08-05T23:05:22.349Z,47.58
2022-08-05T23:07:51.055Z,46.35
2022-08-05T23:10:20.832Z,45.58
2022-08-05T23:12:54.227Z,47.08
2022-08-05T23:15:26.902Z,46.57
2022-08-05T23:18:01.458Z,46.16
2022-08-05T23:20:30.651Z,47.16
2022-08-05T23:22:58.682Z,46.77
2022-08-05T23:25:53.524Z,46.96
2022-08-05T23:28:15.856Z,47.01
2022-08-05T23:30:53.415Z,47.53
2022-08-05T23:33:26.322Z,46.61
2022-08-05T23:36:10.593Z,46.87
2022-08-05T23:38:38.234Z,47.66
2022-08-05T23:41:05.747Z,47.68
2022-08-05T23:44:05.366Z,48.05
2022-08-05T23:46:22.129Z,48.20
2022-08-05T23:49:00.213Z,48.60
2022-08-05T23:52:01.966Z,48.55
2022-08-05T23:54:36.518Z,49.35
2022-08-05T23:57:06.362Z,48.75
2022-08-05T23:59:37.604Z,48.33
